createdAt,value
2022-10-29T00:01:57.729Z,101387.22
2022-10-29T00:04:24.153Z,101391.25
2022-10-29T00:09:21.830Z,101390.06
2022-10-29T00:11:48.228Z,101390.63
2022-10-29T00:14:16.239Z,101395.06
2022-10-29T00:16:42.602Z,101385.88
2022-10-29T00:19:09.295Z,101388.28
2022-10-29T00:21:35.698Z,101391.03
2022-10-29T00:24:02.064Z,101393.34
2022-10-29T00:26:29.985Z,101395.47
2022-10-29T00:28:56.735Z,101390.25
2022-10-29T00:31:27.152Z,101395.31
2022-10-29T00:33:55.299Z,101389.72
2022-10-29T00:36:24.672Z,101394.66
2022-10-29T00:38:51.086Z,101393.84
2022-10-29T00:41:21.138Z,101388.78
2022-10-29T00:43:52.526Z,101400.09
2022-10-29T00:46:27.858Z,101391.88
2022-10-29T00:48:54.865Z,101405.38
2022-10-29T00:51:21.540Z,101403.41
2022-10-29T00:53:52.844Z,101402.00
2022-10-29T00:56:19.300Z,101407.09
2022-10-29T00:58:46.068Z,101401.88
2022-10-29T01:01:12.788Z,101407.38
2022-10-29T01:03:39.295Z,101403.06
2022-10-29T01:06:06.293Z,101403.75
2022-10-29T01:08:32.657Z,101406.66
2022-10-29T01:11:09.322Z,101398.19
2022-10-29T01:13:35.568Z,101402.69
2022-10-29T01:16:08.273Z,101409.09
2022-10-29T01:18:45.322Z,101398.34
2022-10-29T01:21:30.676Z,101386.63
2022-10-29T01:24:09.863Z,101379.19
2022-10-29T01:26:48.342Z,101379.97
2022-10-29T01:29:31.810Z,101376.34
2022-10-29T01:32:07.987Z,101379.97
2022-10-29T01:35:00.431Z,101379.97
2022-10-29T01:37:35.528Z,101371.56
2022-10-29T01:40:28.115Z,101381.88
2022-10-29T01:45:51.313Z,101368.69
2022-10-29T01:48:20.557Z,101364.97
2022-10-29T01:50:51.821Z,101369.47
2022-10-29T01:53:19.140Z,101364.25
2022-10-29T01:55:49.286Z,101367.22
2022-10-29T02:01:04.132Z,101364.47
2022-10-29T02:03:58.739Z,101351.72
2022-10-29T02:06:52.508Z,101342.09
2022-10-29T02:09:42.338Z,101337.56
2022-10-29T02:12:17.764Z,101338.38
2022-10-29T02:15:07.763Z,101338.78
2022-10-29T02:17:34.583Z,101336.59
2022-10-29T02:20:09.657Z,101343.81
2022-10-29T02:22:36.075Z,101342.31
2022-10-29T02:25:03.051Z,101350.94
2022-10-29T02:27:29.441Z,101350.56
2022-10-29T02:29:55.805Z,101346.59
2022-10-29T02:32:22.243Z,101350.00
2022-10-29T02:34:48.603Z,101350.56
2022-10-29T02:37:15.018Z,101350.78
2022-10-29T02:39:41.374Z,101344.59
2022-10-29T02:42:07.735Z,101341.16
2022-10-29T02:44:34.116Z,101338.47
2022-10-29T02:47:00.478Z,101330.53
2022-10-29T02:49:26.852Z,101335.59
2022-10-29T02:51:53.211Z,101334.38
2022-10-29T02:54:19.564Z,101339.00
2022-10-29T02:56:45.956Z,101335.06
2022-10-29T02:59:12.326Z,101331.78
2022-10-29T03:01:38.967Z,101331.41
2022-10-29T03:04:05.582Z,101328.00
2022-10-29T03:06:32.117Z,101322.78
2022-10-29T03:08:58.449Z,101321.25
2022-10-29T03:11:24.811Z,101323.56
2022-10-29T03:13:51.153Z,101319.56
2022-10-29T03:16:17.514Z,101313.94
2022-10-29T03:18:43.856Z,101315.25
2022-10-29T03:21:10.232Z,101322.09
2022-10-29T03:23:36.593Z,101322.28
2022-10-29T03:26:03.186Z,101322.19
2022-10-29T03:28:30.565Z,101313.75
2022-10-29T03:30:57.829Z,101311.44
2022-10-29T03:33:26.502Z,101310.63
2022-10-29T03:35:59.789Z,101315.16
2022-10-29T03:38:26.729Z,101322.78
2022-10-29T03:40:53.123Z,101323.91
2022-10-29T03:43:19.656Z,101315.38
2022-10-29T03:45:56.822Z,101315.75
2022-10-29T03:48:24.092Z,101318.09
2022-10-29T03:51:09.990Z,101310.63
2022-10-29T03:53:37.025Z,101314.25
2022-10-29T03:56:04.056Z,101322.47
2022-10-29T03:58:30.450Z,101322.56
2022-10-29T04:01:04.890Z,101320.59
2022-10-29T04:03:32.887Z,101325.19
2022-10-29T04:06:01.031Z,101320.59
2022-10-29T04:08:27.398Z,101327.00
2022-10-29T04:10:53.922Z,101323.56
2022-10-29T04:13:20.609Z,101328.69
2022-10-29T04:15:47.067Z,101322.41
2022-10-29T04:18:13.927Z,101336.00
2022-10-29T04:21:03.103Z,101324.41
2022-10-29T04:29:01.901Z,101320.97
2022-10-29T04:31:28.259Z,101315.75
2022-10-29T04:33:54.609Z,101313.25
2022-10-29T04:36:21.073Z,101312.06
2022-10-29T04:38:47.462Z,101300.03
2022-10-29T04:41:13.821Z,101285.06
2022-10-29T04:43:40.181Z,101285.50
2022-10-29T04:46:06.573Z,101274.28
2022-10-29T04:48:33.015Z,101281.88
2022-10-29T04:50:59.465Z,101284.88
2022-10-29T04:53:25.817Z,101284.00
2022-10-29T04:55:52.274Z,101286.69
2022-10-29T04:58:19.894Z,101281.47
2022-10-29T05:00:46.609Z,101287.38
2022-10-29T05:03:13.130Z,101286.88
2022-10-29T05:05:39.923Z,101281.06
2022-10-29T05:08:06.739Z,101275.06
2022-10-29T05:10:35.130Z,101288.56
2022-10-29T05:13:03.771Z,101288.03
2022-10-29T05:15:30.673Z,101272.81
2022-10-29T05:17:57.636Z,101272.91
2022-10-29T05:20:25.123Z,101266.13
2022-10-29T05:23:07.955Z,101261.41
2022-10-29T05:25:36.243Z,101264.47
2022-10-29T05:28:15.696Z,101254.78
2022-10-29T05:30:43.803Z,101254.78
2022-10-29T05:33:11.835Z,101245.75
2022-10-29T05:35:38.283Z,101251.78
2022-10-29T05:38:05.436Z,101241.13
2022-10-29T05:40:32.070Z,101248.06
2022-10-29T05:42:58.780Z,101245.66
2022-10-29T05:45:25.382Z,101234.38
2022-10-29T05:47:58.816Z,101233.16
2022-10-29T05:50:25.822Z,101229.25
2022-10-29T05:53:00.320Z,101234.75
2022-10-29T05:55:27.235Z,101245.00
2022-10-29T05:58:00.122Z,101248.41
2022-10-29T06:00:28.228Z,101248.41
2022-10-29T06:02:55.462Z,101245.41
2022-10-29T06:05:22.411Z,101242.38
2022-10-29T06:07:59.134Z,101248.41
2022-10-29T06:10:27.531Z,101246.91
2022-10-29T06:12:53.954Z,101245.00
2022-10-29T06:15:20.568Z,101245.78
2022-10-29T06:17:47.187Z,101249.78
2022-10-29T06:20:15.349Z,101259.19
2022-10-29T06:22:41.735Z,101256.59
2022-10-29T06:25:08.638Z,101250.91
2022-10-29T06:27:35.019Z,101257.84
2022-10-29T06:30:01.366Z,101257.22
2022-10-29T06:32:27.863Z,101257.81
2022-10-29T06:34:54.210Z,101248.41
2022-10-29T06:37:20.619Z,101242.47
2022-10-29T06:39:47.005Z,101251.41
2022-10-29T06:42:13.376Z,101246.84
2022-10-29T06:44:39.741Z,101234.94
2022-10-29T06:47:06.191Z,101242.25
2022-10-29T06:49:32.545Z,101243.19
2022-10-29T06:51:58.977Z,101248.59
2022-10-29T06:54:25.405Z,101251.91
2022-10-29T06:56:51.781Z,101248.56
2022-10-29T06:59:18.140Z,101255.69
2022-10-29T07:01:46.440Z,101247.38
2022-10-29T07:04:12.885Z,101244.56
2022-10-29T07:06:39.285Z,101251.78
2022-10-29T07:09:05.712Z,101251.97
2022-10-29T07:11:32.079Z,101257.00
2022-10-29T07:13:58.515Z,101257.78
2022-10-29T07:16:24.878Z,101250.47
2022-10-29T07:18:51.304Z,101258.75
2022-10-29T07:21:17.669Z,101251.25
2022-10-29T07:23:44.031Z,101247.31
2022-10-29T07:26:10.398Z,101251.44
2022-10-29T07:28:36.758Z,101246.56
2022-10-29T07:31:03.197Z,101243.88
2022-10-29T07:33:30.860Z,101257.59
2022-10-29T07:35:58.632Z,101262.38
2022-10-29T07:38:25.753Z,101256.50
2022-10-29T07:40:52.888Z,101253.66
2022-10-29T07:43:20.390Z,101255.03
2022-10-29T07:45:51.189Z,101254.63
2022-10-29T07:48:19.332Z,101250.94
2022-10-29T07:50:45.801Z,101257.75
2022-10-29T07:53:12.187Z,101258.13
2022-10-29T07:55:38.779Z,101256.78
2022-10-29T07:58:07.691Z,101254.44
2022-10-29T08:00:36.645Z,101253.09
2022-10-29T08:03:03.064Z,101251.44
2022-10-29T08:05:30.776Z,101260.13
2022-10-29T08:07:57.901Z,101267.31
2022-10-29T08:10:24.876Z,101261.91
2022-10-29T08:12:52.430Z,101265.63
2022-10-29T08:15:19.474Z,101269.38
2022-10-29T08:17:46.358Z,101276.13
2022-10-29T08:20:13.832Z,101267.50
2022-10-29T08:22:40.202Z,101268.38
2022-10-29T08:25:06.874Z,101265.13
2022-10-29T08:27:33.278Z,101267.66
2022-10-29T08:29:59.665Z,101261.97
2022-10-29T08:32:26.104Z,101264.72
2022-10-29T08:34:52.503Z,101255.72
2022-10-29T08:37:18.931Z,101255.63
2022-10-29T08:39:45.282Z,101265.53
2022-10-29T08:42:49.967Z,101259.75
2022-10-29T08:45:44.280Z,101251.91
2022-10-29T08:48:17.673Z,101248.84
2022-10-29T08:50:47.421Z,101240.66
2022-10-29T08:53:24.077Z,101238.84
2022-10-29T08:55:51.521Z,101239.56
2022-10-29T08:58:48.100Z,101238.13
2022-10-29T09:01:14.847Z,101231.81
2022-10-29T09:03:41.431Z,101231.53
2022-10-29T09:06:14.816Z,101234.50
2022-10-29T09:09:09.972Z,101229.72
2022-10-29T09:11:43.113Z,101230.25
2022-10-29T09:14:31.335Z,101215.16
2022-10-29T09:17:23.096Z,101211.00
2022-10-29T09:19:55.463Z,101213.25
2022-10-29T09:22:36.000Z,101205.06
2022-10-29T09:25:28.047Z,101198.31
2022-10-29T09:28:35.999Z,101208.31
2022-10-29T09:31:02.251Z,101205.00
2022-10-29T09:33:29.236Z,101203.97
2022-10-29T09:35:57.727Z,101204.19
2022-10-29T09:38:26.978Z,101198.59
2022-10-29T09:40:56.853Z,101197.66
2022-10-29T09:43:41.448Z,101204.19
2022-10-29T09:46:23.175Z,101200.22
2022-10-29T09:49:20.730Z,101194.41
2022-10-29T09:52:00.150Z,101199.22
2022-10-29T09:54:28.493Z,101197.50
2022-10-29T09:56:56.198Z,101192.91
2022-10-29T09:59:36.822Z,101194.13
2022-10-29T10:02:07.204Z,101186.13
2022-10-29T10:04:40.927Z,101189.03
2022-10-29T10:07:12.557Z,101183.75
2022-10-29T10:10:01.664Z,101178.84
2022-10-29T10:12:37.070Z,101169.50
2022-10-29T10:15:08.254Z,101170.91
2022-10-29T10:17:58.176Z,101166.22
2022-10-29T10:20:29.490Z,101157.88
2022-10-29T10:22:56.349Z,101154.09
2022-10-29T10:25:34.825Z,101148.75
2022-10-29T10:28:24.141Z,101149.81
2022-10-29T10:31:13.242Z,101148.16
2022-10-29T10:33:53.001Z,101136.84
2022-10-29T10:36:25.131Z,101150.13
2022-10-29T10:38:59.039Z,101144.25
2022-10-29T10:41:30.793Z,101136.34
2022-10-29T10:44:00.399Z,101135.31
2022-10-29T10:46:29.130Z,101135.84
2022-10-29T10:48:59.233Z,101121.06
2022-10-29T10:51:28.707Z,101122.22
2022-10-29T10:53:55.269Z,101118.41
2022-10-29T10:56:22.678Z,101113.69
2022-10-29T10:59:05.191Z,101110.47
2022-10-29T11:01:42.047Z,101106.41
2022-10-29T11:04:14.262Z,101116.84
2022-10-29T11:06:41.961Z,101111.31
2022-10-29T11:09:19.652Z,101110.38
2022-10-29T11:11:58.866Z,101105.19
2022-10-29T11:14:33.571Z,101106.72
2022-10-29T11:17:02.447Z,101105.91
2022-10-29T11:19:36.673Z,101106.44
2022-10-29T11:22:15.161Z,101090.06
2022-10-29T11:24:53.783Z,101096.09
2022-10-29T11:27:30.791Z,101096.13
2022-10-29T11:30:05.227Z,101090.44
2022-10-29T11:33:06.487Z,101092.75
2022-10-29T11:35:38.182Z,101099.03
2022-10-29T11:38:16.831Z,101093.47
2022-10-29T11:41:04.812Z,101095.00
2022-10-29T11:43:32.271Z,101076.78
2022-10-29T11:46:13.727Z,101079.72
2022-10-29T11:49:17.578Z,101075.31
2022-10-29T11:51:58.138Z,101073.63
2022-10-29T11:54:41.994Z,101068.94
2022-10-29T11:57:20.301Z,101073.63
2022-10-29T12:00:09.649Z,101080.56
2022-10-29T12:03:24.124Z,101067.13
2022-10-29T12:06:12.339Z,101069.31
2022-10-29T12:08:48.744Z,101069.16
2022-10-29T12:11:42.973Z,101070.22
2022-10-29T12:14:25.124Z,101066.06
2022-10-29T12:17:12.739Z,101062.97
2022-10-29T12:20:11.498Z,101060.47
2022-10-29T12:22:41.426Z,101065.94
2022-10-29T12:25:18.111Z,101066.75
2022-10-29T12:27:52.023Z,101064.91
2022-10-29T12:30:19.041Z,101061.44
2022-10-29T12:33:04.334Z,101054.72
2022-10-29T12:35:48.932Z,101054.72
2022-10-29T12:38:25.704Z,101048.94
2022-10-29T12:40:58.676Z,101040.16
2022-10-29T12:43:36.397Z,101051.50
2022-10-29T12:46:21.865Z,101045.97
2022-10-29T12:49:03.412Z,101049.81
2022-10-29T12:51:43.116Z,101051.44
2022-10-29T12:54:27.993Z,101050.97
2022-10-29T12:56:56.460Z,101047.50
2022-10-29T12:59:34.293Z,101050.97
2022-10-29T13:02:30.493Z,101042.38
2022-10-29T13:05:06.072Z,101033.78
2022-10-29T13:07:36.531Z,101038.78
2022-10-29T13:10:21.743Z,101033.34
2022-10-29T13:13:15.992Z,101026.41
2022-10-29T13:16:04.016Z,101027.44
2022-10-29T13:18:41.794Z,101022.63
2022-10-29T13:21:08.546Z,101012.53
2022-10-29T13:23:37.232Z,101011.75
2022-10-29T13:26:08.138Z,101007.31
2022-10-29T13:28:37.530Z,101005.75
2022-10-29T13:31:03.880Z,100993.16
2022-10-29T13:33:30.126Z,100996.56
2022-10-29T13:35:59.360Z,100996.69
2022-10-29T13:38:58.133Z,100993.59
2022-10-29T13:41:43.459Z,100985.41
2022-10-29T13:44:11.649Z,100986.47
2022-10-29T13:47:01.816Z,100989.22
2022-10-29T13:49:41.162Z,100988.25
2022-10-29T13:52:12.144Z,100979.69
2022-10-29T13:54:51.689Z,100982.56
2022-10-29T13:57:25.698Z,100972.91
2022-10-29T13:59:58.211Z,100972.41
2022-10-29T14:02:57.748Z,100971.38
2022-10-29T14:05:38.224Z,100968.50
2022-10-29T14:08:18.915Z,100974.91
2022-10-29T14:10:47.822Z,100959.41
2022-10-29T14:13:14.360Z,100967.41
2022-10-29T14:16:00.796Z,100960.59
2022-10-29T14:18:27.793Z,100965.72
2022-10-29T14:20:58.705Z,100963.28
2022-10-29T14:23:27.159Z,100967.56
2022-10-29T14:25:55.755Z,100970.19
2022-10-29T14:28:30.108Z,100964.75
2022-10-29T14:31:16.551Z,100966.41
2022-10-29T14:33:45.231Z,100961.06
2022-10-29T14:36:26.206Z,100958.53
2022-10-29T14:39:00.421Z,100957.47
2022-10-29T14:41:28.839Z,100957.47
2022-10-29T14:44:09.489Z,100953.56
2022-10-29T14:46:37.530Z,100953.59
2022-10-29T14:49:09.225Z,100954.53
2022-10-29T14:51:41.632Z,100958.03
2022-10-29T14:54:09.477Z,100950.59
2022-10-29T14:56:38.474Z,100963.66
2022-10-29T14:59:13.475Z,100965.34
2022-10-29T15:01:46.361Z,100962.63
2022-10-29T15:04:27.692Z,100966.13
2022-10-29T15:06:56.996Z,100968.91
2022-10-29T15:09:27.990Z,100964.47
2022-10-29T15:12:08.628Z,100964.34
2022-10-29T15:14:47.145Z,100961.47
2022-10-29T15:17:25.793Z,100960.22
2022-10-29T15:19:55.376Z,100954.59
2022-10-29T15:22:26.735Z,100955.50
2022-10-29T15:24:54.260Z,100949.25
2022-10-29T15:27:22.826Z,100945.66
2022-10-29T15:29:49.375Z,100946.16
2022-10-29T15:32:17.344Z,100936.81
2022-10-29T15:34:52.374Z,100941.75
2022-10-29T15:37:18.674Z,100938.09
2022-10-29T15:39:57.136Z,100937.84
2022-10-29T15:42:26.823Z,100935.84
2022-10-29T15:45:08.532Z,100940.88
2022-10-29T15:47:40.042Z,100942.91
2022-10-29T15:50:10.288Z,100943.28
2022-10-29T15:52:41.746Z,100939.72
2022-10-29T15:55:14.623Z,100942.91
2022-10-29T15:57:41.514Z,100940.31
2022-10-29T16:00:08.943Z,100935.78
2022-10-29T16:02:35.378Z,100939.06
2022-10-29T16:05:01.814Z,100945.75
2022-10-29T16:07:28.190Z,100948.16
2022-10-29T16:09:54.896Z,100946.03
2022-10-29T16:12:25.939Z,100948.09
2022-10-29T16:14:52.297Z,100946.38
2022-10-29T16:17:20.908Z,100947.16
2022-10-29T16:19:47.572Z,100943.38
2022-10-29T16:22:16.592Z,100947.59
2022-10-29T16:24:43.028Z,100949.34
2022-10-29T16:27:18.482Z,100943.88
2022-10-29T16:29:46.938Z,100939.41
2022-10-29T16:32:17.716Z,100944.47
2022-10-29T16:34:44.092Z,100950.31
2022-10-29T16:37:15.547Z,100949.41
2022-10-29T16:39:42.418Z,100956.50
2022-10-29T16:42:27.614Z,100945.38
2022-10-29T16:44:53.969Z,100959.09
2022-10-29T16:47:20.414Z,100957.16
2022-10-29T16:49:46.804Z,100952.16
2022-10-29T16:52:16.267Z,100955.66
2022-10-29T16:54:45.841Z,100947.09
2022-10-29T16:57:12.554Z,100954.44
2022-10-29T16:59:38.937Z,100944.91
2022-10-29T17:02:05.331Z,100940.44
2022-10-29T17:04:31.797Z,100938.78
2022-10-29T17:06:58.235Z,100928.66
2022-10-29T17:09:25.653Z,100918.16
2022-10-29T17:11:52.128Z,100927.94
2022-10-29T17:14:18.481Z,100931.97
2022-10-29T17:16:44.843Z,100942.72
2022-10-29T17:19:11.368Z,100936.41
2022-10-29T17:21:37.782Z,100936.16
2022-10-29T17:24:07.774Z,100928.72
2022-10-29T17:26:34.419Z,100931.63
2022-10-29T17:29:00.833Z,100931.75
2022-10-29T17:31:27.259Z,100933.38
2022-10-29T17:33:53.631Z,100938.59
2022-10-29T17:36:20.063Z,100934.72
2022-10-29T17:38:46.605Z,100934.31
2022-10-29T17:41:13.035Z,100936.59
2022-10-29T17:43:39.408Z,100935.28
2022-10-29T17:46:05.801Z,100939.22
2022-10-29T17:48:32.345Z,100932.47
2022-10-29T17:51:01.144Z,100934.13
2022-10-29T17:53:28.867Z,100936.41
2022-10-29T17:55:59.330Z,100933.44
2022-10-29T17:58:26.049Z,100941.34
2022-10-29T18:00:52.693Z,100928.19
2022-10-29T18:03:19.160Z,100924.88
2022-10-29T18:05:45.705Z,100930.47
2022-10-29T18:08:12.121Z,100930.00
2022-10-29T18:10:39.144Z,100927.00
2022-10-29T18:13:05.705Z,100932.25
2022-10-29T18:15:32.220Z,100930.38
2022-10-29T18:17:59.528Z,100927.06
2022-10-29T18:20:26.075Z,100918.34
2022-10-29T18:22:55.805Z,100923.56
2022-10-29T18:25:22.587Z,100920.59
2022-10-29T18:27:49.051Z,100936.72
2022-10-29T18:30:16.051Z,100928.78
2022-10-29T18:32:42.476Z,100928.56
2022-10-29T18:35:09.403Z,100920.94
2022-10-29T18:37:35.765Z,100926.59
2022-10-29T18:40:02.114Z,100918.53
2022-10-29T18:42:29.792Z,100923.00
2022-10-29T18:44:56.142Z,100921.06
2022-10-29T18:47:22.523Z,100920.78
2022-10-29T18:49:48.904Z,100928.34
2022-10-29T18:52:15.287Z,100921.00
2022-10-29T18:54:41.694Z,100925.41
2022-10-29T18:57:08.264Z,100917.59
2022-10-29T18:59:34.685Z,100920.84
2022-10-29T19:02:01.399Z,100902.38
2022-10-29T19:04:27.952Z,100901.56
2022-10-29T19:06:54.579Z,100906.38
2022-10-29T19:09:21.002Z,100898.25
2022-10-29T19:11:53.834Z,100897.72
2022-10-29T19:14:23.343Z,100900.75
2022-10-29T19:16:49.717Z,100897.28
2022-10-29T19:19:18.451Z,100899.03
2022-10-29T19:21:47.723Z,100895.81
2022-10-29T19:24:14.818Z,100891.31
2022-10-29T19:26:41.471Z,100900.41
2022-10-29T19:29:08.520Z,100900.69
2022-10-29T19:31:36.003Z,100890.97
2022-10-29T19:34:05.900Z,100890.88
2022-10-29T19:36:34.342Z,100890.97
2022-10-29T19:39:00.931Z,100881.06
2022-10-29T19:41:27.506Z,100882.66
2022-10-29T19:43:53.966Z,100895.41
2022-10-29T19:46:24.460Z,100887.72
2022-10-29T19:48:52.571Z,100889.19
2022-10-29T19:51:19.295Z,100886.56
2022-10-29T19:53:46.549Z,100892.34
2022-10-29T19:56:14.648Z,100883.59
2022-10-29T19:58:41.295Z,100885.63
2022-10-29T20:01:10.603Z,100878.69
2022-10-29T20:03:37.080Z,100885.97
2022-10-29T20:06:03.824Z,100875.69
2022-10-29T20:08:30.230Z,100876.78
2022-10-29T20:10:57.963Z,100876.94
2022-10-29T20:13:24.988Z,100878.09
2022-10-29T20:15:51.968Z,100878.19
2022-10-29T20:18:18.578Z,100882.72
2022-10-29T20:20:45.395Z,100884.81
2022-10-29T20:23:12.063Z,100884.06
2022-10-29T20:25:38.422Z,100889.88
2022-10-29T20:28:04.882Z,100897.25
2022-10-29T20:30:31.246Z,100893.06
2022-10-29T20:32:57.976Z,100889.09
2022-10-29T20:35:24.562Z,100895.84
2022-10-29T20:37:50.943Z,100900.66
2022-10-29T20:40:17.388Z,100903.28
2022-10-29T20:42:43.784Z,100909.28
2022-10-29T20:45:10.274Z,100901.16
2022-10-29T20:47:36.639Z,100902.28
2022-10-29T20:50:03.034Z,100891.63
2022-10-29T20:52:30.308Z,100894.75
2022-10-29T20:54:56.696Z,100901.44
2022-10-29T20:57:23.061Z,100900.19
2022-10-29T20:59:49.417Z,100896.31
2022-10-29T21:02:15.919Z,100897.50
2022-10-29T21:04:42.372Z,100901.75
2022-10-29T21:07:08.776Z,100901.63
2022-10-29T21:09:35.163Z,100902.53
2022-10-29T21:12:01.533Z,100898.72
2022-10-29T21:14:29.522Z,100901.34
2022-10-29T21:16:55.892Z,100903.59
2022-10-29T21:19:22.857Z,100896.81
2022-10-29T21:21:49.196Z,100897.63
2022-10-29T21:24:16.474Z,100911.38
2022-10-29T21:26:42.826Z,100913.84
2022-10-29T21:29:09.187Z,100918.09
2022-10-29T21:31:35.633Z,100915.38
2022-10-29T21:34:01.989Z,100913.63
2022-10-29T21:36:28.339Z,100919.19
2022-10-29T21:38:54.703Z,100920.59
2022-10-29T21:41:21.139Z,100915.09
2022-10-29T21:43:47.599Z,100917.84
2022-10-29T21:46:14.008Z,100918.66
2022-10-29T21:48:40.473Z,100925.38
2022-10-29T21:51:10.178Z,100926.97
2022-10-29T21:53:36.642Z,100928.16
2022-10-29T21:56:04.958Z,100929.94
2022-10-29T21:58:31.618Z,100934.06
2022-10-29T22:01:03.413Z,100934.06
2022-10-29T22:03:31.541Z,100929.44
2022-10-29T22:06:22.141Z,100932.94
2022-10-29T22:08:53.347Z,100939.28
2022-10-29T22:11:19.703Z,100933.59
2022-10-29T22:13:46.131Z,100944.00
2022-10-29T22:16:12.836Z,100936.91
2022-10-29T22:18:39.979Z,100939.75
2022-10-29T22:21:06.630Z,100943.09
2022-10-29T22:23:33.333Z,100941.16
2022-10-29T22:25:59.730Z,100940.84
2022-10-29T22:28:26.096Z,100939.41
2022-10-29T22:31:00.196Z,100941.69
2022-10-29T22:33:27.325Z,100947.09
2022-10-29T22:35:53.717Z,100953.53
2022-10-29T22:38:20.165Z,100947.56
2022-10-29T22:40:46.518Z,100943.88
2022-10-29T22:43:12.999Z,100939.22
2022-10-29T22:45:39.409Z,100939.06
2022-10-29T22:48:06.006Z,100944.75
2022-10-29T22:50:32.368Z,100938.50
2022-10-29T22:52:59.095Z,100933.13
2022-10-29T22:55:25.645Z,100944.38
2022-10-29T22:57:52.001Z,100938.19
2022-10-29T23:00:18.383Z,100938.63
2022-10-29T23:02:44.796Z,100935.28
2022-10-29T23:05:11.175Z,100931.72
2022-10-29T23:07:37.528Z,100933.50
2022-10-29T23:10:04.106Z,100939.09
2022-10-29T23:12:30.497Z,100942.72
2022-10-29T23:14:56.856Z,100943.84
2022-10-29T23:17:23.225Z,100943.41
2022-10-29T23:19:49.570Z,100946.66
2022-10-29T23:24:47.179Z,100943.03
2022-10-29T23:27:13.535Z,100938.22
2022-10-29T23:29:39.869Z,100941.06
2022-10-29T23:32:06.242Z,100942.97
2022-10-29T23:34:32.625Z,100940.09
2022-10-29T23:37:00.415Z,100949.38
2022-10-29T23:39:28.495Z,100948.66
2022-10-29T23:41:54.845Z,100938.78
2022-10-29T23:44:21.177Z,100933.56
2022-10-29T23:46:47.535Z,100944.00
2022-10-29T23:49:13.875Z,100936.50
2022-10-29T23:51:40.248Z,100940.53
2022-10-29T23:54:06.603Z,100943.63
2022-10-29T23:56:33.023Z,100943.50
2022-10-29T23:58:59.370Z,100943.50
